Time;durP1;ratioP1;P1;durP2;ratioP2;P2;SDS_P1;SDS_P2;PMS_P1;PMS_P2;Temp;Humidity;BMP_temperature;BMP_pressure;BME280_temperature;BME280_humidity;BME280_pressure;Samples;Min_cycle;Max_cycle;Signal;HPM_P1;HPM_P2
2024/01/30 00:01:00;;;;;;;1999.90;999.90;;;10.30;99.90;;;;;;4994673;28;20965;-67
2024/01/30 00:03:26;;;;;;;1999.90;999.90;;;10.10;99.90;;;;;;4996493;28;20196;-67
2024/01/30 00:05:52;;;;;;;1999.90;999.90;;;10.30;99.90;;;;;;4997063;28;20187;-67
2024/01/30 00:08:18;;;;;;;1999.90;999.90;;;10.00;99.90;;;;;;4996793;28;20406;-66
2024/01/30 00:10:43;;;;;;;1999.90;999.90;;;9.90;99.90;;;;;;4996840;28;20169;-68
2024/01/30 00:13:09;;;;;;;1999.90;999.90;;;10.30;99.90;;;;;;4996292;28;20438;-65
2024/01/30 00:15:34;;;;;;;1999.90;999.90;;;10.00;99.90;;;;;;4994405;28;20183;-65
2024/01/30 00:18:01;;;;;;;1999.90;999.90;;;9.90;99.90;;;;;;4994084;28;20189;-66
2024/01/30 00:20:26;;;;;;;1999.90;999.90;;;9.90;1.00;;;;;;4994321;28;20253;-67
2024/01/30 00:22:52;;;;;;;1999.90;999.90;;;9.50;99.90;;;;;;4994117;28;20423;-66
2024/01/30 00:25:18;;;;;;;1999.90;999.90;;;9.60;1.00;;;;;;4995642;28;20179;-66
2024/01/30 00:27:43;;;;;;;1999.90;999.90;;;9.70;1.00;;;;;;4994913;28;20203;-67
2024/01/30 00:30:10;;;;;;;1999.90;999.90;;;10.10;42.90;;;;;;4994163;28;20183;-67
2024/01/30 00:32:35;;;;;;;1999.90;999.90;;;9.50;25.30;;;;;;4994118;28;20164;-66
2024/01/30 00:35:01;;;;;;;1999.90;999.90;;;9.80;99.90;;;;;;4995335;28;20438;-68
2024/01/30 00:37:26;;;;;;;1999.90;999.90;;;9.70;99.90;;;;;;4996832;28;20292;-67
2024/01/30 00:39:52;;;;;;;1999.90;999.90;;;10.00;99.90;;;;;;4997002;28;20177;-66
2024/01/30 00:42:17;;;;;;;1999.90;999.90;;;9.90;99.90;;;;;;4996738;28;20214;-67
2024/01/30 00:44:43;;;;;;;1999.90;999.90;;;9.80;99.90;;;;;;4996357;28;20678;-67
2024/01/30 00:47:09;;;;;;;1999.90;999.90;;;9.50;99.90;;;;;;4996865;28;20173;-66
2024/01/30 00:49:34;;;;;;;1999.90;999.90;;;9.70;99.90;;;;;;4996898;28;20539;-66
2024/01/30 00:52:00;;;;;;;1999.90;999.90;;;9.90;58.20;;;;;;4996774;28;20187;-67
2024/01/30 00:54:26;;;;;;;1999.90;999.90;;;9.80;1.00;;;;;;4994908;28;20205;-66
2024/01/30 00:56:51;;;;;;;1999.90;999.90;;;10.00;1.00;;;;;;4993392;28;20243;-65
2024/01/30 00:59:17;;;;;;;1999.90;999.90;;;10.00;1.00;;;;;;4993578;28;20177;-65
2024/01/30 01:01:42;;;;;;;1999.90;999.90;;;9.80;1.00;;;;;;4993443;28;20243;-66
2024/01/30 01:04:08;;;;;;;1999.90;999.90;;;9.80;99.90;;;;;;4993421;28;20262;-66
2024/01/30 01:06:33;;;;;;;1999.90;999.90;;;9.80;99.90;;;;;;4993206;28;20181;-66
2024/01/30 01:08:59;;;;;;;1999.90;999.90;;;9.70;99.90;;;;;;4993346;28;20173;-65
2024/01/30 01:11:24;;;;;;;1999.90;999.90;;;9.40;99.90;;;;;;4993352;28;20632;-65
2024/01/30 01:13:50;;;;;;;1999.90;999.90;;;9.30;99.90;;;;;;4993172;28;20191;-65
2024/01/30 01:16:16;;;;;;;1999.90;999.90;;;9.60;99.90;;;;;;4993308;28;20225;-65
2024/01/30 01:18:41;;;;;;;1999.90;999.90;;;9.30;99.90;;;;;;4993017;28;20179;-66
2024/01/30 01:21:07;;;;;;;1999.90;999.90;;;9.50;1.00;;;;;;4993038;28;20201;-67
2024/01/30 01:23:32;;;;;;;1999.90;999.90;;;9.60;1.00;;;;;;4992399;28;20671;-66
2024/01/30 01:25:59;;;;;;;1999.90;999.90;;;9.40;1.00;;;;;;4993140;28;20175;-66
2024/01/30 01:28:25;;;;;;;1999.90;999.90;;;9.20;1.00;;;;;;4992785;28;20650;-66
2024/01/30 01:30:51;;;;;;;1999.90;999.90;;;9.50;1.00;;;;;;4992928;28;20419;-65
2024/01/30 01:33:17;;;;;;;1999.90;999.90;;;9.40;1.00;;;;;;4992869;28;20196;-67
2024/01/30 01:35:43;;;;;;;1999.90;999.90;;;9.70;1.00;;;;;;4992932;28;20761;-66
2024/01/30 01:38:08;;;;;;;1999.90;999.90;;;9.20;1.00;;;;;;4995049;28;20414;-67
2024/01/30 01:40:34;;;;;;;1999.90;999.90;;;9.30;1.00;;;;;;4994591;28;20202;-66
2024/01/30 01:43:03;;;;;;;1999.90;999.90;;;8.60;22.80;;;;;;4992775;28;20175;-66
2024/01/30 01:45:29;;;;;;;1999.90;999.90;;;8.80;1.00;;;;;;4992807;28;20250;-67
2024/01/30 01:47:54;;;;;;;1999.90;999.90;;;8.90;1.00;;;;;;4992566;28;21011;-67
2024/01/30 01:50:21;;;;;;;1999.90;999.90;;;8.80;1.00;;;;;;4992712;28;20238;-67
2024/01/30 01:52:50;;;;;;;1999.90;999.90;;;9.50;91.50;;;;;;4992550;28;20411;-66
2024/01/30 01:55:21;;;;;;;1999.90;999.90;;;9.40;1.00;;;;;;4992863;28;20777;-66
2024/01/30 01:57:47;;;;;;;1999.90;999.90;;;9.60;1.00;;;;;;4992464;28;20407;-65
2024/01/30 02:00:15;;;;;;;1999.90;999.90;;;9.30;1.00;;;;;;4992560;28;20406;-66
2024/01/30 02:02:42;;;;;;;1999.90;999.90;;;8.70;1.00;;;;;;4992542;28;20452;-65
2024/01/30 02:05:09;;;;;;;1999.90;999.90;;;9.50;1.00;;;;;;4992478;28;20421;-66
2024/01/30 02:07:34;;;;;;;1999.90;999.90;;;9.40;1.00;;;;;;4992314;28;20403;-66
2024/01/30 02:10:00;;;;;;;1999.90;999.90;;;9.60;1.00;;;;;;4992602;28;20472;-66
2024/01/30 02:12:25;;;;;;;1999.90;999.90;;;9.40;1.00;;;;;;4992423;28;20613;-66
2024/01/30 02:14:51;;;;;;;1999.90;999.90;;;9.40;1.00;;;;;;4992437;28;20196;-65
2024/01/30 02:17:17;;;;;;;1999.90;999.90;;;9.50;1.00;;;;;;4992125;28;20260;-66
2024/01/30 02:19:43;;;;;;;1999.90;999.90;;;9.50;1.00;;;;;;4992452;28;20654;-66
2024/01/30 02:22:09;;;;;;;1999.90;999.90;;;9.20;1.00;;;;;;4992240;28;20461;-66
2024/01/30 02:24:35;;;;;;;1999.90;999.90;;;9.50;1.00;;;;;;4993919;28;20210;-67
2024/01/30 02:27:01;;;;;;;1999.90;999.90;;;9.30;1.00;;;;;;4994824;28;20415;-67
2024/01/30 02:29:26;;;;;;;1999.90;999.90;;;9.00;1.00;;;;;;4994350;28;20549;-66
2024/01/30 02:31:52;;;;;;;1999.90;999.90;;;9.40;1.00;;;;;;4992277;28;20178;-65
2024/01/30 02:34:19;;;;;;;1999.90;999.90;;;8.80;8.70;;;;;;4992547;28;20215;-65
2024/01/30 02:36:45;;;;;;;1999.90;999.90;;;8.90;1.00;;;;;;4996004;28;20652;-66
2024/01/30 02:39:10;;;;;;;1999.90;999.90;;;9.60;1.00;;;;;;4996176;28;20410;-65
2024/01/30 02:41:36;;;;;;;1999.90;999.90;;;9.40;1.00;;;;;;4996057;28;20837;-66
2024/01/30 02:44:03;;;;;;;1999.90;999.90;;;9.40;1.00;;;;;;4996030;28;20700;-66
2024/01/30 02:46:28;;;;;;;1999.90;999.90;;;9.40;1.00;;;;;;4996236;28;20205;-67
2024/01/30 02:48:54;;;;;;;1999.90;999.90;;;9.40;1.00;;;;;;4997453;28;20411;-66
2024/01/30 02:51:20;;;;;;;1999.90;999.90;;;9.30;1.00;;;;;;4995945;28;20171;-65
2024/01/30 02:53:45;;;;;;;1999.90;999.90;;;9.20;1.00;;;;;;4995853;28;20220;-66
2024/01/30 02:56:13;;;;;;;1999.90;999.90;;;9.10;1.00;;;;;;4995937;28;20592;-65
2024/01/30 02:58:39;;;;;;;1999.90;999.90;;;8.70;1.00;;;;;;4995628;28;20262;-66
2024/01/30 03:01:06;;;;;;;1999.90;999.90;;;9.20;1.00;;;;;;4995621;28;20982;-67
2024/01/30 03:03:31;;;;;;;1999.90;999.90;;;9.30;1.00;;;;;;4996619;28;20522;-67
2024/01/30 03:05:57;;;;;;;1999.90;999.90;;;9.20;1.00;;;;;;4999104;28;20589;-67
2024/01/30 03:08:24;;;;;;;1999.90;999.90;;;8.90;1.00;;;;;;4998751;28;20268;-66
2024/01/30 03:10:49;;;;;;;1999.90;999.90;;;9.10;1.00;;;;;;4996151;28;20412;-66
2024/01/30 03:13:15;;;;;;;1999.90;999.90;;;8.90;44.00;;;;;;4995494;28;20234;-67
2024/01/30 03:15:40;;;;;;;1999.90;999.90;;;9.10;99.90;;;;;;4995494;28;20182;-66
2024/01/30 03:18:06;;;;;;;1999.90;999.90;;;8.40;99.90;;;;;;4995232;28;20179;-67
2024/01/30 03:20:32;;;;;;;1999.90;999.90;;;8.40;99.90;;;;;;4995313;28;20198;-67
2024/01/30 03:22:59;;;;;;;1999.90;999.90;;;8.50;99.90;;;;;;4995191;28;20598;-66
2024/01/30 03:25:25;;;;;;;1999.90;999.90;;;9.20;99.90;;;;;;4995481;28;20175;-66
2024/01/30 03:27:51;;;;;;;1999.90;999.90;;;9.20;99.90;;;;;;4995092;28;20453;-65
2024/01/30 03:30:17;;;;;;;1999.90;999.90;;;9.20;99.90;;;;;;4995789;28;20175;-67
2024/01/30 03:32:43;;;;;;;1999.90;999.90;;;9.30;99.90;;;;;;4998673;28;20163;-67
2024/01/30 03:35:09;;;;;;;1999.90;999.90;;;9.40;99.90;;;;;;4998262;28;20509;-67
2024/01/30 03:37:34;;;;;;;1999.90;999.90;;;8.60;99.90;;;;;;4996704;28;20401;-66
2024/01/30 03:40:01;;;;;;;1999.90;999.90;;;9.30;99.90;;;;;;4995023;28;20472;-66
2024/01/30 03:42:26;;;;;;;1999.90;999.90;;;9.40;99.90;;;;;;4995014;28;20712;-66
2024/01/30 03:44:53;;;;;;;1999.90;999.90;;;8.90;99.90;;;;;;4994776;28;20442;-66
2024/01/30 03:47:20;;;;;;;1999.90;999.90;;;9.30;99.90;;;;;;4994361;28;20637;-66
2024/01/30 03:49:45;;;;;;;1999.90;999.90;;;9.50;99.90;;;;;;4995059;28;20456;-67
2024/01/30 03:52:11;;;;;;;1999.90;999.90;;;8.90;99.90;;;;;;4994830;28;20502;-66
2024/01/30 03:54:36;;;;;;;1999.90;999.90;;;9.40;99.90;;;;;;4994772;28;20257;-66
2024/01/30 03:57:02;;;;;;;1999.90;999.90;;;9.00;99.90;;;;;;4994532;28;20647;-66
2024/01/30 03:59:28;;;;;;;1999.90;999.90;;;8.40;93.30;;;;;;4994719;28;20237;-66
2024/01/30 04:01:54;;;;;;;1999.90;999.90;;;9.00;39.40;;;;;;4994812;28;20212;-65
2024/01/30 04:04:19;;;;;;;1999.90;999.90;;;8.90;29.80;;;;;;4994652;28;20697;-66
2024/01/30 04:06:45;;;;;;;1999.90;999.90;;;9.00;73.20;;;;;;4994542;28;20449;-67
2024/01/30 04:09:13;;;;;;;1999.90;999.90;;;8.80;87.90;;;;;;4994546;28;20176;-67
2024/01/30 04:11:44;;;;;;;1999.90;999.90;;;9.00;99.90;;;;;;4994576;28;21049;-66
2024/01/30 04:14:10;;;;;;;1999.90;999.90;;;9.00;99.90;;;;;;4994365;28;20941;-65
2024/01/30 04:16:36;;;;;;;1999.90;999.90;;;8.50;67.60;;;;;;4994140;28;20441;-65
2024/01/30 04:19:01;;;;;;;1999.90;999.90;;;8.50;99.90;;;;;;4994284;28;20497;-65
2024/01/30 04:21:27;;;;;;;1999.90;999.90;;;8.20;99.90;;;;;;4994293;28;20578;-65
2024/01/30 04:23:53;;;;;;;1999.90;999.90;;;8.10;99.90;;;;;;4994074;28;20202;-66
2024/01/30 04:26:19;;;;;;;1999.90;999.90;;;8.50;99.90;;;;;;4994164;28;20250;-65
2024/01/30 04:28:45;;;;;;;1999.90;999.90;;;8.30;99.90;;;;;;4993891;28;20465;-66
2024/01/30 04:31:10;;;;;;;1999.90;999.90;;;8.50;99.90;;;;;;4994079;28;20180;-66
2024/01/30 04:33:36;;;;;;;1999.90;999.90;;;7.90;99.90;;;;;;4993982;28;20437;-66
2024/01/30 04:36:02;;;;;;;1999.90;999.90;;;8.40;99.90;;;;;;4994043;28;20271;-66
2024/01/30 04:38:28;;;;;;;1999.90;999.90;;;8.10;99.90;;;;;;4993737;28;20173;-66
2024/01/30 04:40:54;;;;;;;1999.90;999.90;;;8.90;99.90;;;;;;4993887;28;20449;-65
2024/01/30 04:43:19;;;;;;;1999.90;999.90;;;8.60;99.90;;;;;;4993767;28;20233;-66
2024/01/30 04:45:45;;;;;;;1999.90;999.90;;;8.80;99.90;;;;;;4994236;28;20171;-67
2024/01/30 04:48:11;;;;;;;1999.90;999.90;;;9.00;99.90;;;;;;4996350;28;20183;-66
2024/01/30 04:50:36;;;;;;;1999.90;999.90;;;8.80;99.90;;;;;;4996096;28;20186;-67
2024/01/30 04:53:02;;;;;;;1999.90;999.90;;;8.20;99.90;;;;;;4994971;28;20177;-67
2024/01/30 04:55:27;;;;;;;1999.90;999.90;;;8.30;99.90;;;;;;4993685;28;20198;-66
2024/01/30 04:57:53;;;;;;;1999.90;999.90;;;9.20;99.90;;;;;;4992548;28;20555;-66
2024/01/30 05:00:19;;;;;;;1999.90;999.90;;;9.30;99.90;;;;;;4995702;28;20268;-65
2024/01/30 05:02:44;;;;;;;1999.90;999.90;;;8.50;99.90;;;;;;4996337;28;20175;-67
2024/01/30 05:05:10;;;;;;;1999.90;999.90;;;9.20;99.90;;;;;;4996386;28;20195;-67
2024/01/30 05:07:36;;;;;;;1999.90;999.90;;;8.80;99.90;;;;;;4996210;28;20251;-66
2024/01/30 05:10:03;;;;;;;1999.90;999.90;;;9.20;99.90;;;;;;4993382;28;20182;-65
2024/01/30 05:12:28;;;;;;;1999.90;999.90;;;8.50;99.90;;;;;;4993258;28;20429;-66
2024/01/30 05:14:54;;;;;;;1999.90;999.90;;;9.40;99.90;;;;;;4993279;28;20466;-66
2024/01/30 05:17:19;;;;;;;1999.90;999.90;;;9.00;99.90;;;;;;4993046;28;20252;-66
2024/01/30 05:19:45;;;;;;;1999.90;999.90;;;9.20;99.90;;;;;;4993391;28;20673;-65
2024/01/30 05:22:15;;;;;;;1999.90;999.90;;;8.80;99.90;;;;;;4993078;28;20234;-66
2024/01/30 05:24:41;;;;;;;1999.90;999.90;;;9.20;99.90;;;;;;4993199;28;20293;-65
2024/01/30 05:27:07;;;;;;;1999.90;999.90;;;9.10;99.90;;;;;;4995503;28;20466;-68
2024/01/30 05:29:33;;;;;;;1999.90;999.90;;;9.40;99.90;;;;;;4993040;28;20401;-66
2024/01/30 05:31:59;;;;;;;1999.90;999.90;;;9.10;99.90;;;;;;4993118;28;20604;-66
2024/01/30 05:34:24;;;;;;;1999.90;999.90;;;9.00;99.90;;;;;;4992881;28;20493;-67
2024/01/30 05:36:50;;;;;;;1999.90;999.90;;;9.20;99.90;;;;;;4992691;28;20544;-66
2024/01/30 05:39:15;;;;;;;1999.90;999.90;;;9.10;99.90;;;;;;4992853;28;20227;-67
2024/01/30 05:41:41;;;;;;;1999.90;999.90;;;9.30;99.90;;;;;;4992777;28;20193;-66
2024/01/30 05:44:07;;;;;;;1999.90;999.90;;;9.00;99.90;;;;;;4992754;28;20218;-66
2024/01/30 05:46:33;;;;;;;1999.90;999.90;;;8.80;99.90;;;;;;4992624;28;20170;-66
2024/01/30 05:48:59;;;;;;;1999.90;999.90;;;8.80;99.90;;;;;;4992810;28;20166;-67
2024/01/30 05:51:24;;;;;;;1999.90;999.90;;;9.00;99.90;;;;;;4992859;28;20976;-66
2024/01/30 05:53:50;;;;;;;1999.90;999.90;;;9.40;99.90;;;;;;4992612;28;20189;-66
2024/01/30 05:56:16;;;;;;;1999.90;999.90;;;8.90;99.90;;;;;;4992622;28;20638;-66
2024/01/30 05:58:43;;;;;;;1999.90;999.90;;;9.00;99.90;;;;;;4992414;28;20258;-65
2024/01/30 06:01:09;;;;;;;1999.90;999.90;;;9.10;99.90;;;;;;4992620;28;20207;-66
2024/01/30 06:03:35;;;;;;;1999.90;999.90;;;8.80;99.90;;;;;;4992248;28;20481;-65
2024/01/30 06:06:01;;;;;;;1999.90;999.90;;;9.30;99.90;;;;;;4992523;28;20419;-65
2024/01/30 06:08:26;;;;;;;1999.90;999.90;;;9.30;99.90;;;;;;4997509;28;20175;-66
2024/01/30 06:10:52;;;;;;;1999.90;999.90;;;9.30;99.90;;;;;;5012185;28;20218;-66
2024/01/30 06:13:18;;;;;;;1999.90;999.90;;;8.90;99.90;;;;;;5011712;28;20229;-65
2024/01/30 06:15:43;;;;;;;1999.90;999.90;;;9.20;99.90;;;;;;5011966;28;20216;-65
2024/01/30 06:18:09;;;;;;;1999.90;999.90;;;9.30;99.90;;;;;;5011765;28;20415;-65
2024/01/30 06:20:35;;;;;;;1999.90;999.90;;;7.90;99.90;;;;;;5011763;28;20205;-66
2024/01/30 06:23:00;;;;;;;1999.90;999.90;;;8.60;99.90;;;;;;5011702;28;20551;-66
2024/01/30 06:25:26;;;;;;;1999.90;999.90;;;9.40;99.90;;;;;;5012159;28;20397;-67
2024/01/30 06:27:52;;;;;;;1999.90;999.90;;;9.40;99.90;;;;;;5014142;28;20213;-67
2024/01/30 06:30:18;;;;;;;1999.90;999.90;;;9.30;99.90;;;;;;5015202;28;20171;-67
2024/01/30 06:32:43;;;;;;;1999.90;999.90;;;9.00;99.90;;;;;;5013880;28;20253;-65
2024/01/30 06:35:10;;;;;;;1999.90;999.90;;;9.50;99.90;;;;;;5011815;28;20518;-66
2024/01/30 06:37:36;;;;;;;1999.90;999.90;;;9.10;99.90;;;;;;5011593;28;20180;-67
2024/01/30 06:40:02;;;;;;;1999.90;999.90;;;9.10;99.90;;;;;;5011818;28;20420;-66
2024/01/30 06:42:27;;;;;;;1999.90;999.90;;;9.10;99.90;;;;;;5011661;28;20465;-66
2024/01/30 06:44:53;;;;;;;1999.90;999.90;;;9.70;99.90;;;;;;5011705;28;20442;-67
2024/01/30 06:47:19;;;;;;;1999.90;999.90;;;8.90;99.90;;;;;;5011508;28;20193;-65
2024/01/30 06:49:45;;;;;;;1999.90;999.90;;;9.20;99.90;;;;;;5011807;28;20195;-67
2024/01/30 06:52:11;;;;;;;1999.90;999.90;;;9.20;99.90;;;;;;5011738;28;20248;-66
2024/01/30 06:54:37;;;;;;;1999.90;999.90;;;9.50;99.90;;;;;;5011562;28;20437;-66
2024/01/30 06:57:03;;;;;;;1999.90;999.90;;;9.30;99.90;;;;;;5011416;28;20962;-67
2024/01/30 06:59:28;;;;;;;1999.90;999.90;;;8.90;99.90;;;;;;5011837;28;20661;-67
2024/01/30 07:01:54;;;;;;;1999.90;999.90;;;9.50;99.90;;;;;;5011605;28;20460;-67
2024/01/30 07:04:19;;;;;;;1999.90;999.90;;;8.90;99.90;;;;;;5011532;28;20552;-67
2024/01/30 07:06:45;;;;;;;1999.90;999.90;;;9.30;99.90;;;;;;5011374;28;20166;-66
2024/01/30 07:09:13;;;;;;;1999.90;999.90;;;9.10;99.90;;;;;;5011611;28;20638;-67
2024/01/30 07:11:39;;;;;;;1999.90;999.90;;;9.40;99.90;;;;;;5011590;28;20279;-67
2024/01/30 07:14:04;;;;;;;1999.90;999.90;;;9.10;99.90;;;;;;5011473;28;21132;-65
2024/01/30 07:16:30;;;;;;;1999.90;999.90;;;9.60;99.90;;;;;;5011263;28;20635;-66
2024/01/30 07:18:56;;;;;;;1999.90;999.90;;;9.30;99.90;;;;;;5011499;28;20178;-66
2024/01/30 07:21:27;;;;;;;1999.90;999.90;;;9.40;99.90;;;;;;5013248;28;20190;-66
2024/01/30 07:23:53;;;;;;;1999.90;999.90;;;9.60;99.90;;;;;;5014840;28;20449;-66
2024/01/30 07:26:19;;;;;;;1999.90;999.90;;;9.50;99.90;;;;;;5014939;28;20460;-65
2024/01/30 07:28:44;;;;;;;1999.90;999.90;;;9.30;99.90;;;;;;5014672;28;20918;-66
2024/01/30 07:31:10;;;;;;;1999.90;999.90;;;9.30;99.90;;;;;;5014851;28;20173;-66
2024/01/30 07:33:35;;;;;;;1999.90;999.90;;;9.60;99.90;;;;;;5014714;28;20214;-66
2024/01/30 07:36:01;;;;;;;1999.90;999.90;;;9.40;99.90;;;;;;5014830;28;20206;-66
2024/01/30 07:38:27;;;;;;;1999.90;999.90;;;9.00;99.90;;;;;;5014566;28;20172;-66
2024/01/30 07:40:52;;;;;;;1999.90;999.90;;;9.50;99.90;;;;;;5014807;28;20572;-66
2024/01/30 07:43:19;;;;;;;1999.90;999.90;;;9.30;99.90;;;;;;5014431;28;20191;-66
2024/01/30 07:45:45;;;;;;;1999.90;999.90;;;9.60;99.90;;;;;;5015761;28;20179;-67
2024/01/30 07:48:11;;;;;;;1999.90;999.90;;;9.50;99.90;;;;;;5015120;28;20406;-66
2024/01/30 07:50:36;;;;;;;1999.90;999.90;;;9.50;99.90;;;;;;5014600;28;20234;-66
2024/01/30 07:53:02;;;;;;;1999.90;999.90;;;9.00;99.90;;;;;;5014337;28;20267;-67
2024/01/30 07:55:28;;;;;;;1999.90;999.90;;;9.00;99.90;;;;;;5014403;28;20595;-67
2024/01/30 07:57:55;;;;;;;1999.90;999.90;;;9.70;99.90;;;;;;5014159;28;20525;-66
2024/01/30 08:00:21;;;;;;;1999.90;999.90;;;9.70;99.90;;;;;;5014241;28;20410;-66
2024/01/30 08:02:47;;;;;;;1999.90;999.90;;;9.20;99.90;;;;;;5014242;28;20411;-66
2024/01/30 08:05:15;;;;;;;1999.90;999.90;;;9.30;99.90;;;;;;5014237;28;20403;-66
2024/01/30 08:07:41;;;;;;;1999.90;999.90;;;9.20;99.90;;;;;;5013939;28;20407;-66
2024/01/30 08:10:07;;;;;;;1999.90;999.90;;;9.40;99.90;;;;;;5012743;28;20406;-66
2024/01/30 08:12:33;;;;;;;1999.90;999.90;;;9.20;99.90;;;;;;4994173;28;20408;-67
2024/01/30 08:14:58;;;;;;;1999.90;999.90;;;9.90;99.90;;;;;;4994486;28;20911;-65
2024/01/30 08:17:24;;;;;;;1999.90;999.90;;;9.70;99.90;;;;;;4994227;28;20253;-65
2024/01/30 08:19:49;;;;;;;1999.90;999.90;;;10.00;99.90;;;;;;4994402;28;20179;-65
2024/01/30 08:22:15;;;;;;;1999.90;999.90;;;9.90;99.90;;;;;;4994020;28;20213;-66
2024/01/30 08:24:41;;;;;;;1999.90;999.90;;;9.90;99.90;;;;;;4994916;28;20216;-68
2024/01/30 08:27:09;;;;;;;1999.90;999.90;;;9.60;99.90;;;;;;4996150;28;20579;-67
2024/01/30 08:29:35;;;;;;;1999.90;999.90;;;9.60;99.90;;;;;;4996365;28;20419;-67
2024/01/30 08:32:02;;;;;;;1999.90;999.90;;;9.90;99.90;;;;;;4995010;28;20495;-66
2024/01/30 08:34:27;;;;;;;1999.90;999.90;;;9.60;99.90;;;;;;4994014;28;20434;-67
2024/01/30 08:36:53;;;;;;;1999.90;999.90;;;9.90;99.90;;;;;;4993896;28;20417;-66
2024/01/30 08:39:19;;;;;;;1999.90;999.90;;;10.10;80.80;;;;;;4994262;28;20165;-67
2024/01/30 08:41:44;;;;;;;1999.90;999.90;;;9.80;84.60;;;;;;4994082;28;20200;-67
2024/01/30 08:44:11;;;;;;;1999.90;999.90;;;9.90;55.60;;;;;;4993986;28;20188;-67
2024/01/30 08:46:36;;;;;;;1999.90;999.90;;;9.80;32.70;;;;;;4993778;28;20183;-67
2024/01/30 08:49:04;;;;;;;1999.90;999.90;;;10.00;4.60;;;;;;4992845;28;20412;-67
2024/01/30 08:51:29;;;;;;;1999.90;999.90;;;10.20;1.00;;;;;;4994034;28;20201;-67
2024/01/30 08:53:55;;;;;;;1999.90;999.90;;;10.00;1.00;;;;;;4993885;28;20459;-67
2024/01/30 08:56:21;;;;;;;1999.90;999.90;;;10.10;1.00;;;;;;4994846;28;20176;-67
2024/01/30 08:58:46;;;;;;;1999.90;999.90;;;9.90;1.00;;;;;;4994583;28;20181;-67
2024/01/30 09:01:12;;;;;;;1999.90;999.90;;;10.90;1.00;;;;;;4994450;28;20687;-66
2024/01/30 09:03:42;;;;;;;1999.90;999.90;;;10.10;1.00;;;;;;4993399;28;20248;-66
2024/01/30 09:06:11;;;;;;;1999.90;999.90;;;10.40;1.00;;;;;;4992344;28;20179;-66
2024/01/30 09:08:38;;;;;;;1999.90;999.90;;;10.20;1.00;;;;;;4993181;28;20404;-67
2024/01/30 09:11:13;;;;;;;1999.90;999.90;;;10.00;1.00;;;;;;4993398;28;20412;-67
2024/01/30 09:13:39;;;;;;;1999.90;999.90;;;9.90;1.00;;;;;;4993405;28;20454;-66
2024/01/30 09:16:05;;;;;;;1999.90;999.90;;;10.20;2.50;;;;;;4993089;28;20762;-66
2024/01/30 09:18:31;;;;;;;1999.90;999.90;;;9.90;1.00;;;;;;4992395;28;20423;-67
2024/01/30 09:20:57;;;;;;;1999.90;999.90;;;10.20;1.00;;;;;;4994212;28;20204;-66
2024/01/30 09:23:22;;;;;;;1999.90;999.90;;;10.00;1.00;;;;;;4994229;28;20204;-65
2024/01/30 09:25:48;;;;;;;1999.90;999.90;;;9.90;28.70;;;;;;5003072;28;20632;-66
2024/01/30 09:28:14;;;;;;;1999.90;999.90;;;10.10;63.40;;;;;;4992677;28;20177;-66
2024/01/30 09:30:40;;;;;;;1999.90;999.90;;;10.10;92.90;;;;;;5000496;28;20825;-67
2024/01/30 09:33:06;;;;;;;1999.90;999.90;;;9.70;99.90;;;;;;4993183;28;20472;-67
2024/01/30 09:35:32;;;;;;;1999.90;999.90;;;10.30;99.90;;;;;;4993070;28;20172;-66
2024/01/30 09:37:58;;;;;;;1999.90;999.90;;;10.20;99.90;;;;;;4994765;28;21051;-66
2024/01/30 09:40:24;;;;;;;1999.90;999.90;;;10.20;99.90;;;;;;4992845;28;20173;-67
2024/01/30 09:42:54;;;;;;;1999.90;999.90;;;10.10;99.90;;;;;;4992399;28;20176;-66
2024/01/30 09:45:23;;;;;;;1999.90;999.90;;;10.20;99.90;;;;;;4992721;28;20512;-66
2024/01/30 09:47:49;;;;;;;1999.90;999.90;;;10.30;99.90;;;;;;4991891;28;20429;-67
2024/01/30 09:50:16;;;;;;;1999.90;999.90;;;10.50;99.90;;;;;;4992646;28;20412;-65
2024/01/30 09:52:43;;;;;;;1999.90;999.90;;;10.50;99.90;;;;;;4992535;28;20233;-65
2024/01/30 09:55:09;;;;;;;1999.90;999.90;;;10.70;1.00;;;;;;4995282;28;20548;-66
2024/01/30 09:57:36;;;;;;;1999.90;999.90;;;10.60;1.00;;;;;;4992241;28;20499;-66
2024/01/30 10:00:03;;;;;;;1999.90;999.90;;;10.80;1.00;;;;;;4992422;28;20553;-66
2024/01/30 10:02:29;;;;;;;1999.90;999.90;;;10.70;1.00;;;;;;4992277;28;20452;-66
2024/01/30 10:04:54;;;;;;;1999.90;999.90;;;10.90;1.00;;;;;;4992255;28;20447;-67
2024/01/30 10:07:20;;;;;;;1999.90;999.90;;;11.00;1.00;;;;;;4991699;28;20181;-66
2024/01/30 10:09:46;;;;;;;1999.90;999.90;;;10.90;1.00;;;;;;4992339;28;20197;-67
2024/01/30 10:12:12;;;;;;;1999.90;999.90;;;11.20;1.00;;;;;;4992265;28;20415;-66
2024/01/30 10:14:42;;;;;;;1999.90;999.90;;;11.30;99.90;;;;;;4992137;28;20442;-66
2024/01/30 10:17:09;;;;;;;1999.90;999.90;;;11.40;99.90;;;;;;4991536;28;20431;-66
2024/01/30 10:19:35;;;;;;;1999.90;999.90;;;11.50;99.90;;;;;;4992355;28;20422;-66
2024/01/30 10:22:01;;;;;;;1999.90;999.90;;;11.60;1.00;;;;;;4992105;28;20452;-66
2024/01/30 10:24:29;;;;;;;1999.90;999.90;;;11.60;1.00;;;;;;4991969;28;20540;-67
2024/01/30 10:26:55;;;;;;;1999.90;999.90;;;11.70;99.90;;;;;;4991491;28;20191;-66
2024/01/30 10:29:20;;;;;;;1999.90;999.90;;;11.90;99.90;;;;;;4994174;28;20411;-66
2024/01/30 10:31:47;;;;;;;1999.90;999.90;;;11.90;1.00;;;;;;4992222;28;20411;-66
2024/01/30 10:34:13;;;;;;;1999.90;999.90;;;12.00;99.90;;;;;;4992126;28;20197;-66
2024/01/30 10:36:46;;;;;;;1999.90;999.90;;;12.00;99.90;;;;;;4990317;28;20419;-65
2024/01/30 10:39:15;;;;;;;1999.90;999.90;;;12.20;99.90;;;;;;4992189;28;20407;-66
2024/01/30 10:41:46;;;;;;;1999.90;999.90;;;12.10;99.90;;;;;;4991857;28;20459;-66
2024/01/30 10:44:13;;;;;;;1999.90;999.90;;;12.20;1.00;;;;;;4992209;28;20775;-66
2024/01/30 10:46:41;;;;;;;1999.90;999.90;;;12.20;99.90;;;;;;4988327;28;20411;-66
2024/01/30 10:49:07;;;;;;;1999.90;999.90;;;12.20;1.00;;;;;;4991776;28;21030;-66
2024/01/30 10:51:34;;;;;;;1999.90;999.90;;;12.00;10.50;;;;;;4991745;28;20416;-66
2024/01/30 10:54:00;;;;;;;1999.90;999.90;;;11.90;99.90;;;;;;4991168;28;20432;-67
2024/01/30 10:56:27;;;;;;;1999.90;999.90;;;11.90;1.00;;;;;;4993414;28;20540;-66
2024/01/30 10:58:54;;;;;;;1999.90;999.90;;;11.90;59.00;;;;;;4995363;28;20413;-66
2024/01/30 11:01:23;;;;;;;1999.90;999.90;;;12.00;99.90;;;;;;4995073;28;20538;-67
2024/01/30 11:03:52;;;;;;;1999.90;999.90;;;12.20;1.00;;;;;;4995676;28;20465;-66
2024/01/30 11:06:18;;;;;;;1999.90;999.90;;;12.30;1.00;;;;;;5013859;28;20425;-66
2024/01/30 11:08:45;;;;;;;1999.90;999.90;;;12.40;1.00;;;;;;5013680;28;20916;-66
2024/01/30 11:11:11;;;;;;;1999.90;999.90;;;12.50;51.60;;;;;;5015043;28;20254;-65
2024/01/30 11:13:36;;;;;;;1999.90;999.90;;;12.60;99.90;;;;;;5014862;28;20429;-66
2024/01/30 11:16:06;;;;;;;1999.90;999.90;;;12.60;1.00;;;;;;5014363;28;20176;-65
2024/01/30 11:18:35;;;;;;;1999.90;999.90;;;12.60;99.90;;;;;;5014268;28;20470;-67
2024/01/30 11:21:01;;;;;;;1999.90;999.90;;;12.70;99.90;;;;;;5014755;28;20462;-66
2024/01/30 11:23:28;;;;;;;1999.90;999.90;;;12.70;99.90;;;;;;5014027;28;20565;-65
2024/01/30 11:25:54;;;;;;;1999.90;999.90;;;12.70;99.90;;;;;;5014683;28;20418;-67
2024/01/30 11:28:21;;;;;;;1999.90;999.90;;;12.70;56.50;;;;;;5014068;28;20414;-67
2024/01/30 11:30:50;;;;;;;1999.90;999.90;;;12.90;7.30;;;;;;5014277;28;20461;-66
2024/01/30 11:33:30;;;;;;;1999.90;999.90;;;13.00;1.00;;;;;;5014487;28;20434;-66
2024/01/30 11:36:02;;;;;;;1999.90;999.90;;;13.00;1.00;;;;;;5014399;28;20415;-66
2024/01/30 11:38:28;;;;;;;1999.90;999.90;;;13.20;99.90;;;;;;5000571;28;20419;-65
2024/01/30 11:40:57;;;;;;;1999.90;999.90;;;13.10;99.90;;;;;;4994721;28;20494;-65
2024/01/30 11:43:23;;;;;;;1999.90;999.90;;;13.20;99.90;;;;;;4995071;28;20520;-67
2024/01/30 11:45:49;;;;;;;1999.90;999.90;;;13.10;99.90;;;;;;4994357;28;20413;-66
2024/01/30 11:48:15;;;;;;;1999.90;999.90;;;13.10;99.90;;;;;;4993719;28;20461;-66
2024/01/30 11:50:41;;;;;;;1999.90;999.90;;;13.20;99.90;;;;;;4994792;28;20469;-67
2024/01/30 11:53:07;;;;;;;1999.90;999.90;;;13.10;99.90;;;;;;4994126;28;20241;-67
2024/01/30 11:55:35;;;;;;;1999.90;999.90;;;13.30;99.90;;;;;;4994669;28;20418;-67
2024/01/30 11:58:01;;;;;;;1999.90;999.90;;;13.30;1.00;;;;;;4993891;28;20412;-67
2024/01/30 12:00:27;;;;;;;1999.90;999.90;;;13.20;27.40;;;;;;4993990;28;20415;-67
2024/01/30 12:02:58;;;;;;;1999.90;999.90;;;13.00;99.90;;;;;;4994290;28;20255;-66